Airport View

Enter AWOS ICAO identifier for current METAR.

ex. KFNL

KLHX 112253Z AUTO 36006KT 10SM CLR 08/M06 A2992 RMK AO2 SLP136 T00831061

11 Dec 2019 23:22

Frequency: 135.525

Phone: 719-384-5961

Other Area AWOS: KLAA - KPUB - KTAD - KSPD

TAF KPUB 111731Z 1118/1218 19008KT P6SM BKN200 FM120000 32011KT P6SM SCT120 BKN200 FM120500 29007KT P6SM SCT200